sensor_id;sensor_type;location;lat;lon;timestamp;P1;durP1;ratioP1;P2;durP2;ratioP2
65835;SDS011;52595;51.608;7.216;2023-03-01T00:01:08;12.48;;;6.90;;
65835;SDS011;52595;51.608;7.216;2023-03-01T00:03:38;11.70;;;6.35;;
65835;SDS011;52595;51.608;7.216;2023-03-01T00:06:05;13.88;;;7.10;;
65835;SDS011;52595;51.608;7.216;2023-03-01T00:08:31;12.82;;;7.13;;
65835;SDS011;52595;51.608;7.216;2023-03-01T00:11:17;12.05;;;7.00;;
65835;SDS011;52595;51.608;7.216;2023-03-01T00:13:48;13.07;;;6.80;;
65835;SDS011;52595;51.608;7.216;2023-03-01T00:16:16;11.25;;;6.75;;
65835;SDS011;52595;51.608;7.216;2023-03-01T00:18:46;11.50;;;6.70;;
65835;SDS011;52595;51.608;7.216;2023-03-01T00:21:12;12.55;;;7.03;;
65835;SDS011;52595;51.608;7.216;2023-03-01T00:23:38;11.38;;;6.95;;
65835;SDS011;52595;51.608;7.216;2023-03-01T00:26:07;13.38;;;6.95;;
65835;SDS011;52595;51.608;7.216;2023-03-01T00:28:34;11.40;;;7.03;;
65835;SDS011;52595;51.608;7.216;2023-03-01T00:31:05;13.18;;;7.40;;
65835;SDS011;52595;51.608;7.216;2023-03-01T00:33:32;12.95;;;6.57;;
65835;SDS011;52595;51.608;7.216;2023-03-01T00:35:58;13.35;;;7.18;;
65835;SDS011;52595;51.608;7.216;2023-03-01T00:38:23;14.88;;;7.18;;
65835;SDS011;52595;51.608;7.216;2023-03-01T00:40:49;13.85;;;7.20;;
65835;SDS011;52595;51.608;7.216;2023-03-01T00:43:14;11.60;;;6.82;;
65835;SDS011;52595;51.608;7.216;2023-03-01T00:45:40;15.82;;;7.32;;
65835;SDS011;52595;51.608;7.216;2023-03-01T00:48:05;13.65;;;7.53;;
65835;SDS011;52595;51.608;7.216;2023-03-01T00:50:31;15.57;;;7.68;;
65835;SDS011;52595;51.608;7.216;2023-03-01T00:52:56;12.60;;;7.00;;
65835;SDS011;52595;51.608;7.216;2023-03-01T00:55:22;12.27;;;7.25;;
65835;SDS011;52595;51.608;7.216;2023-03-01T00:57:48;12.82;;;7.45;;
65835;SDS011;52595;51.608;7.216;2023-03-01T01:00:14;13.27;;;7.32;;
65835;SDS011;52595;51.608;7.216;2023-03-01T01:02:40;11.75;;;6.82;;
65835;SDS011;52595;51.608;7.216;2023-03-01T01:05:05;14.02;;;7.10;;
65835;SDS011;52595;51.608;7.216;2023-03-01T01:07:31;15.65;;;7.47;;
65835;SDS011;52595;51.608;7.216;2023-03-01T01:09:56;13.38;;;7.43;;
65835;SDS011;52595;51.608;7.216;2023-03-01T01:12:22;13.18;;;7.18;;
65835;SDS011;52595;51.608;7.216;2023-03-01T01:14:47;12.48;;;7.28;;
65835;SDS011;52595;51.608;7.216;2023-03-01T01:17:13;12.35;;;7.07;;
65835;SDS011;52595;51.608;7.216;2023-03-01T01:19:38;14.40;;;7.38;;
65835;SDS011;52595;51.608;7.216;2023-03-01T01:22:04;14.35;;;7.85;;
65835;SDS011;52595;51.608;7.216;2023-03-01T01:24:29;15.68;;;7.90;;
65835;SDS011;52595;51.608;7.216;2023-03-01T01:26:55;14.00;;;7.50;;
65835;SDS011;52595;51.608;7.216;2023-03-01T01:29:21;12.40;;;7.22;;
65835;SDS011;52595;51.608;7.216;2023-03-01T01:31:46;14.23;;;7.10;;
65835;SDS011;52595;51.608;7.216;2023-03-01T01:34:13;13.43;;;7.68;;
65835;SDS011;52595;51.608;7.216;2023-03-01T01:36:40;12.50;;;7.50;;
65835;SDS011;52595;51.608;7.216;2023-03-01T01:39:06;12.30;;;7.45;;
65835;SDS011;52595;51.608;7.216;2023-03-01T01:41:32;13.85;;;7.82;;
65835;SDS011;52595;51.608;7.216;2023-03-01T01:44:17;14.98;;;7.20;;
65835;SDS011;52595;51.608;7.216;2023-03-01T01:46:56;12.82;;;7.78;;
65835;SDS011;52595;51.608;7.216;2023-03-01T01:54:31;19.67;;;7.32;;
65835;SDS011;52595;51.608;7.216;2023-03-01T01:57:07;13.52;;;7.05;;
65835;SDS011;52595;51.608;7.216;2023-03-01T01:59:35;12.15;;;7.30;;
65835;SDS011;52595;51.608;7.216;2023-03-01T02:02:03;13.27;;;7.30;;
65835;SDS011;52595;51.608;7.216;2023-03-01T02:04:29;12.38;;;6.68;;
65835;SDS011;52595;51.608;7.216;2023-03-01T02:07:20;13.00;;;7.18;;
65835;SDS011;52595;51.608;7.216;2023-03-01T02:09:47;13.20;;;7.07;;
65835;SDS011;52595;51.608;7.216;2023-03-01T02:12:16;14.48;;;7.57;;
65835;SDS011;52595;51.608;7.216;2023-03-01T02:14:44;13.50;;;7.53;;
65835;SDS011;52595;51.608;7.216;2023-03-01T02:17:10;13.10;;;7.30;;
65835;SDS011;52595;51.608;7.216;2023-03-01T02:22:13;14.30;;;7.72;;
65835;SDS011;52595;51.608;7.216;2023-03-01T02:27:29;13.75;;;7.05;;
65835;SDS011;52595;51.608;7.216;2023-03-01T02:30:02;14.90;;;7.47;;
65835;SDS011;52595;51.608;7.216;2023-03-01T02:32:28;14.38;;;7.40;;
65835;SDS011;52595;51.608;7.216;2023-03-01T02:34:54;13.85;;;7.55;;
65835;SDS011;52595;51.608;7.216;2023-03-01T02:37:20;13.65;;;7.63;;
65835;SDS011;52595;51.608;7.216;2023-03-01T02:39:50;12.18;;;7.10;;
65835;SDS011;52595;51.608;7.216;2023-03-01T02:42:23;13.98;;;7.55;;
65835;SDS011;52595;51.608;7.216;2023-03-01T02:45:02;13.23;;;7.40;;
65835;SDS011;52595;51.608;7.216;2023-03-01T02:47:27;14.43;;;7.78;;
65835;SDS011;52595;51.608;7.216;2023-03-01T02:49:53;15.45;;;7.85;;
65835;SDS011;52595;51.608;7.216;2023-03-01T02:52:40;14.00;;;7.13;;
65835;SDS011;52595;51.608;7.216;2023-03-01T02:55:16;14.60;;;7.22;;
65835;SDS011;52595;51.608;7.216;2023-03-01T02:57:43;12.68;;;7.10;;
65835;SDS011;52595;51.608;7.216;2023-03-01T03:00:13;14.43;;;7.57;;
65835;SDS011;52595;51.608;7.216;2023-03-01T03:02:44;13.18;;;6.88;;
65835;SDS011;52595;51.608;7.216;2023-03-01T03:05:18;17.55;;;7.75;;
65835;SDS011;52595;51.608;7.216;2023-03-01T03:07:49;12.35;;;7.13;;
65835;SDS011;52595;51.608;7.216;2023-03-01T03:10:17;14.15;;;7.50;;
65835;SDS011;52595;51.608;7.216;2023-03-01T03:12:49;15.43;;;7.25;;
65835;SDS011;52595;51.608;7.216;2023-03-01T03:15:16;16.35;;;7.28;;
65835;SDS011;52595;51.608;7.216;2023-03-01T03:17:42;15.13;;;7.60;;
65835;SDS011;52595;51.608;7.216;2023-03-01T03:20:09;13.00;;;7.13;;
65835;SDS011;52595;51.608;7.216;2023-03-01T03:22:37;15.05;;;7.13;;
65835;SDS011;52595;51.608;7.216;2023-03-01T03:25:05;15.80;;;7.95;;
65835;SDS011;52595;51.608;7.216;2023-03-01T03:27:35;16.30;;;7.65;;
65835;SDS011;52595;51.608;7.216;2023-03-01T03:30:05;15.18;;;7.63;;
65835;SDS011;52595;51.608;7.216;2023-03-01T03:32:34;11.85;;;7.18;;
65835;SDS011;52595;51.608;7.216;2023-03-01T03:35:04;13.73;;;7.18;;
65835;SDS011;52595;51.608;7.216;2023-03-01T03:37:39;15.60;;;7.68;;
65835;SDS011;52595;51.608;7.216;2023-03-01T03:40:26;14.70;;;7.68;;
65835;SDS011;52595;51.608;7.216;2023-03-01T03:42:52;14.98;;;7.95;;
65835;SDS011;52595;51.608;7.216;2023-03-01T03:45:17;15.95;;;7.88;;
65835;SDS011;52595;51.608;7.216;2023-03-01T03:47:43;13.30;;;7.55;;
65835;SDS011;52595;51.608;7.216;2023-03-01T03:50:10;14.60;;;7.47;;
65835;SDS011;52595;51.608;7.216;2023-03-01T03:52:36;16.65;;;7.95;;
65835;SDS011;52595;51.608;7.216;2023-03-01T03:55:02;13.55;;;7.32;;
65835;SDS011;52595;51.608;7.216;2023-03-01T03:57:28;16.38;;;7.97;;
65835;SDS011;52595;51.608;7.216;2023-03-01T03:59:53;15.20;;;8.48;;
65835;SDS011;52595;51.608;7.216;2023-03-01T04:02:19;14.93;;;8.07;;
65835;SDS011;52595;51.608;7.216;2023-03-01T04:04:50;14.88;;;8.15;;
65835;SDS011;52595;51.608;7.216;2023-03-01T04:07:18;17.60;;;9.15;;
65835;SDS011;52595;51.608;7.216;2023-03-01T04:09:44;15.05;;;8.25;;
65835;SDS011;52595;51.608;7.216;2023-03-01T04:12:09;12.85;;;7.45;;
65835;SDS011;52595;51.608;7.216;2023-03-01T04:14:35;14.07;;;7.43;;
65835;SDS011;52595;51.608;7.216;2023-03-01T04:17:01;18.20;;;7.75;;
65835;SDS011;52595;51.608;7.216;2023-03-01T04:19:26;12.98;;;7.45;;
65835;SDS011;52595;51.608;7.216;2023-03-01T04:21:52;14.88;;;7.95;;
65835;SDS011;52595;51.608;7.216;2023-03-01T04:24:17;18.02;;;8.15;;
65835;SDS011;52595;51.608;7.216;2023-03-01T04:26:43;15.23;;;7.95;;
65835;SDS011;52595;51.608;7.216;2023-03-01T04:29:08;13.75;;;7.72;;
65835;SDS011;52595;51.608;7.216;2023-03-01T04:31:34;17.45;;;8.10;;
65835;SDS011;52595;51.608;7.216;2023-03-01T04:33:59;16.70;;;7.93;;
65835;SDS011;52595;51.608;7.216;2023-03-01T04:36:25;15.45;;;7.80;;
65835;SDS011;52595;51.608;7.216;2023-03-01T04:38:52;15.00;;;7.65;;
65835;SDS011;52595;51.608;7.216;2023-03-01T04:41:20;13.57;;;7.85;;
65835;SDS011;52595;51.608;7.216;2023-03-01T04:43:46;13.52;;;7.82;;
65835;SDS011;52595;51.608;7.216;2023-03-01T04:46:14;16.15;;;7.78;;
65835;SDS011;52595;51.608;7.216;2023-03-01T04:48:42;15.38;;;7.78;;
65835;SDS011;52595;51.608;7.216;2023-03-01T04:51:08;13.93;;;7.30;;
65835;SDS011;52595;51.608;7.216;2023-03-01T04:53:34;14.23;;;7.85;;
65835;SDS011;52595;51.608;7.216;2023-03-01T04:56:03;16.83;;;7.88;;
65835;SDS011;52595;51.608;7.216;2023-03-01T04:58:28;13.52;;;7.70;;
65835;SDS011;52595;51.608;7.216;2023-03-01T05:00:54;15.05;;;8.07;;
65835;SDS011;52595;51.608;7.216;2023-03-01T05:03:20;14.60;;;7.70;;
65835;SDS011;52595;51.608;7.216;2023-03-01T05:05:46;15.05;;;7.60;;
65835;SDS011;52595;51.608;7.216;2023-03-01T05:08:15;17.77;;;8.25;;
65835;SDS011;52595;51.608;7.216;2023-03-01T05:10:48;15.45;;;8.20;;
65835;SDS011;52595;51.608;7.216;2023-03-01T05:13:18;17.35;;;8.02;;
65835;SDS011;52595;51.608;7.216;2023-03-01T05:15:48;13.57;;;7.90;;
65835;SDS011;52595;51.608;7.216;2023-03-01T05:18:18;14.85;;;7.93;;
65835;SDS011;52595;51.608;7.216;2023-03-01T05:20:44;16.45;;;8.50;;
65835;SDS011;52595;51.608;7.216;2023-03-01T05:23:09;15.20;;;8.57;;
65835;SDS011;52595;51.608;7.216;2023-03-01T05:25:35;15.85;;;7.68;;
65835;SDS011;52595;51.608;7.216;2023-03-01T05:28:05;14.57;;;8.25;;
65835;SDS011;52595;51.608;7.216;2023-03-01T05:30:32;16.90;;;8.75;;
65835;SDS011;52595;51.608;7.216;2023-03-01T05:32:58;16.02;;;8.60;;
65835;SDS011;52595;51.608;7.216;2023-03-01T05:35:24;14.93;;;8.27;;
65835;SDS011;52595;51.608;7.216;2023-03-01T05:37:50;13.98;;;8.63;;
65835;SDS011;52595;51.608;7.216;2023-03-01T05:40:17;17.20;;;8.35;;
65835;SDS011;52595;51.608;7.216;2023-03-01T05:42:48;15.82;;;8.50;;
65835;SDS011;52595;51.608;7.216;2023-03-01T05:45:15;15.25;;;8.82;;
65835;SDS011;52595;51.608;7.216;2023-03-01T05:47:42;18.98;;;9.10;;
65835;SDS011;52595;51.608;7.216;2023-03-01T05:50:13;18.05;;;9.10;;
65835;SDS011;52595;51.608;7.216;2023-03-01T05:52:44;15.98;;;8.80;;
65835;SDS011;52595;51.608;7.216;2023-03-01T05:55:17;16.20;;;8.60;;
65835;SDS011;52595;51.608;7.216;2023-03-01T05:57:45;19.65;;;9.27;;
65835;SDS011;52595;51.608;7.216;2023-03-01T06:00:11;14.68;;;8.93;;
65835;SDS011;52595;51.608;7.216;2023-03-01T06:02:38;17.23;;;8.75;;
65835;SDS011;52595;51.608;7.216;2023-03-01T06:05:05;17.50;;;9.15;;
65835;SDS011;52595;51.608;7.216;2023-03-01T06:07:32;15.48;;;8.77;;
65835;SDS011;52595;51.608;7.216;2023-03-01T06:09:57;16.73;;;9.32;;
65835;SDS011;52595;51.608;7.216;2023-03-01T06:12:23;17.88;;;9.25;;
65835;SDS011;52595;51.608;7.216;2023-03-01T06:14:48;18.10;;;9.75;;
65835;SDS011;52595;51.608;7.216;2023-03-01T06:17:14;16.65;;;9.07;;
65835;SDS011;52595;51.608;7.216;2023-03-01T06:19:39;18.92;;;9.23;;
65835;SDS011;52595;51.608;7.216;2023-03-01T06:22:04;18.77;;;9.55;;
65835;SDS011;52595;51.608;7.216;2023-03-01T06:24:30;18.00;;;9.38;;
65835;SDS011;52595;51.608;7.216;2023-03-01T06:26:55;17.38;;;9.50;;
65835;SDS011;52595;51.608;7.216;2023-03-01T06:29:21;16.23;;;8.98;;
65835;SDS011;52595;51.608;7.216;2023-03-01T06:31:48;15.80;;;9.38;;
65835;SDS011;52595;51.608;7.216;2023-03-01T06:34:13;17.17;;;9.00;;
65835;SDS011;52595;51.608;7.216;2023-03-01T06:36:39;17.45;;;9.70;;
65835;SDS011;52595;51.608;7.216;2023-03-01T06:39:05;17.45;;;9.45;;
65835;SDS011;52595;51.608;7.216;2023-03-01T06:41:31;18.17;;;9.77;;
65835;SDS011;52595;51.608;7.216;2023-03-01T06:43:57;21.45;;;10.15;;
65835;SDS011;52595;51.608;7.216;2023-03-01T06:46:23;17.20;;;9.82;;
65835;SDS011;52595;51.608;7.216;2023-03-01T06:48:49;17.77;;;9.40;;
65835;SDS011;52595;51.608;7.216;2023-03-01T06:51:14;22.73;;;10.18;;
65835;SDS011;52595;51.608;7.216;2023-03-01T06:53:40;18.70;;;9.73;;
65835;SDS011;52595;51.608;7.216;2023-03-01T06:56:05;16.98;;;9.38;;
65835;SDS011;52595;51.608;7.216;2023-03-01T06:58:31;18.52;;;9.63;;
65835;SDS011;52595;51.608;7.216;2023-03-01T07:00:56;18.13;;;9.88;;
65835;SDS011;52595;51.608;7.216;2023-03-01T07:03:21;16.98;;;9.57;;
65835;SDS011;52595;51.608;7.216;2023-03-01T07:05:50;20.02;;;9.48;;
65835;SDS011;52595;51.608;7.216;2023-03-01T07:08:19;15.80;;;8.73;;
65835;SDS011;52595;51.608;7.216;2023-03-01T07:10:45;17.00;;;9.25;;
65835;SDS011;52595;51.608;7.216;2023-03-01T07:13:10;17.20;;;9.02;;
65835;SDS011;52595;51.608;7.216;2023-03-01T07:15:36;17.00;;;9.43;;
65835;SDS011;52595;51.608;7.216;2023-03-01T07:18:01;17.40;;;9.52;;
65835;SDS011;52595;51.608;7.216;2023-03-01T07:20:27;18.35;;;9.57;;
65835;SDS011;52595;51.608;7.216;2023-03-01T07:22:53;18.30;;;9.23;;
65835;SDS011;52595;51.608;7.216;2023-03-01T07:25:19;17.85;;;9.13;;
65835;SDS011;52595;51.608;7.216;2023-03-01T07:27:48;17.17;;;9.45;;
65835;SDS011;52595;51.608;7.216;2023-03-01T07:30:17;16.58;;;9.00;;
65835;SDS011;52595;51.608;7.216;2023-03-01T07:32:43;19.63;;;9.48;;
65835;SDS011;52595;51.608;7.216;2023-03-01T07:35:10;18.73;;;10.18;;
65835;SDS011;52595;51.608;7.216;2023-03-01T07:37:35;21.73;;;10.85;;
65835;SDS011;52595;51.608;7.216;2023-03-01T07:40:01;21.42;;;11.23;;
65835;SDS011;52595;51.608;7.216;2023-03-01T07:42:26;19.08;;;10.85;;
65835;SDS011;52595;51.608;7.216;2023-03-01T07:44:51;17.17;;;10.32;;
65835;SDS011;52595;51.608;7.216;2023-03-01T07:47:17;20.98;;;10.23;;
65835;SDS011;52595;51.608;7.216;2023-03-01T07:49:42;18.48;;;9.75;;
65835;SDS011;52595;51.608;7.216;2023-03-01T07:52:09;16.30;;;9.02;;
65835;SDS011;52595;51.608;7.216;2023-03-01T07:54:38;18.33;;;8.50;;
65835;SDS011;52595;51.608;7.216;2023-03-01T07:57:04;15.77;;;8.65;;
65835;SDS011;52595;51.608;7.216;2023-03-01T07:59:29;18.13;;;9.23;;
65835;SDS011;52595;51.608;7.216;2023-03-01T08:01:55;17.73;;;8.80;;
65835;SDS011;52595;51.608;7.216;2023-03-01T08:04:21;15.90;;;8.57;;
65835;SDS011;52595;51.608;7.216;2023-03-01T08:06:48;16.17;;;8.45;;
65835;SDS011;52595;51.608;7.216;2023-03-01T08:09:13;18.70;;;9.10;;
65835;SDS011;52595;51.608;7.216;2023-03-01T08:11:38;16.02;;;8.65;;
65835;SDS011;52595;51.608;7.216;2023-03-01T08:14:05;16.20;;;8.70;;
65835;SDS011;52595;51.608;7.216;2023-03-01T08:16:31;18.55;;;9.32;;
65835;SDS011;52595;51.608;7.216;2023-03-01T08:19:02;15.68;;;8.85;;
65835;SDS011;52595;51.608;7.216;2023-03-01T08:21:35;16.27;;;8.55;;
65835;SDS011;52595;51.608;7.216;2023-03-01T08:24:04;15.90;;;9.02;;
65835;SDS011;52595;51.608;7.216;2023-03-01T08:26:31;17.23;;;8.70;;
65835;SDS011;52595;51.608;7.216;2023-03-01T08:28:57;17.63;;;8.60;;
65835;SDS011;52595;51.608;7.216;2023-03-01T08:31:27;14.82;;;8.20;;
65835;SDS011;52595;51.608;7.216;2023-03-01T08:33:56;14.63;;;8.07;;
65835;SDS011;52595;51.608;7.216;2023-03-01T08:36:25;22.50;;;8.63;;
65835;SDS011;52595;51.608;7.216;2023-03-01T08:38:52;16.42;;;8.98;;
65835;SDS011;52595;51.608;7.216;2023-03-01T08:41:18;17.65;;;9.18;;
65835;SDS011;52595;51.608;7.216;2023-03-01T08:43:43;16.42;;;8.77;;
65835;SDS011;52595;51.608;7.216;2023-03-01T08:46:09;17.60;;;9.15;;
65835;SDS011;52595;51.608;7.216;2023-03-01T08:48:35;17.13;;;9.10;;
65835;SDS011;52595;51.608;7.216;2023-03-01T08:51:07;15.00;;;8.52;;
65835;SDS011;52595;51.608;7.216;2023-03-01T08:53:34;16.65;;;8.60;;
65835;SDS011;52595;51.608;7.216;2023-03-01T08:55:59;15.68;;;8.98;;
65835;SDS011;52595;51.608;7.216;2023-03-01T08:58:27;15.82;;;8.80;;
65835;SDS011;52595;51.608;7.216;2023-03-01T09:00:53;15.07;;;8.57;;
65835;SDS011;52595;51.608;7.216;2023-03-01T09:03:18;17.70;;;8.93;;
65835;SDS011;52595;51.608;7.216;2023-03-01T09:05:43;15.57;;;8.93;;
65835;SDS011;52595;51.608;7.216;2023-03-01T09:08:10;13.73;;;8.23;;
65835;SDS011;52595;51.608;7.216;2023-03-01T09:10:39;14.45;;;8.27;;
65835;SDS011;52595;51.608;7.216;2023-03-01T09:13:04;15.13;;;8.60;;
65835;SDS011;52595;51.608;7.216;2023-03-01T09:15:30;17.05;;;8.00;;
65835;SDS011;52595;51.608;7.216;2023-03-01T09:17:55;15.93;;;8.10;;
65835;SDS011;52595;51.608;7.216;2023-03-01T09:20:20;21.10;;;7.75;;
65835;SDS011;52595;51.608;7.216;2023-03-01T09:22:46;15.07;;;8.00;;
65835;SDS011;52595;51.608;7.216;2023-03-01T09:25:11;15.40;;;7.82;;
65835;SDS011;52595;51.608;7.216;2023-03-01T09:27:37;13.13;;;7.75;;
65835;SDS011;52595;51.608;7.216;2023-03-01T09:30:02;15.30;;;7.85;;
65835;SDS011;52595;51.608;7.216;2023-03-01T09:32:32;12.38;;;7.30;;
65835;SDS011;52595;51.608;7.216;2023-03-01T09:34:57;11.15;;;6.80;;
65835;SDS011;52595;51.608;7.216;2023-03-01T09:37:28;14.13;;;8.13;;
65835;SDS011;52595;51.608;7.216;2023-03-01T09:39:53;13.95;;;6.93;;
65835;SDS011;52595;51.608;7.216;2023-03-01T09:42:19;14.40;;;7.13;;
65835;SDS011;52595;51.608;7.216;2023-03-01T09:44:49;11.98;;;6.88;;
65835;SDS011;52595;51.608;7.216;2023-03-01T09:47:27;17.55;;;6.97;;
65835;SDS011;52595;51.608;7.216;2023-03-01T09:50:02;10.82;;;6.28;;
65835;SDS011;52595;51.608;7.216;2023-03-01T09:52:43;12.15;;;6.80;;
65835;SDS011;52595;51.608;7.216;2023-03-01T09:55:16;15.05;;;7.13;;
65835;SDS011;52595;51.608;7.216;2023-03-01T09:57:55;12.60;;;6.85;;
65835;SDS011;52595;51.608;7.216;2023-03-01T10:00:43;13.85;;;6.95;;
65835;SDS011;52595;51.608;7.216;2023-03-01T10:03:23;11.93;;;6.60;;
65835;SDS011;52595;51.608;7.216;2023-03-01T10:11:24;12.32;;;6.38;;
65835;SDS011;52595;51.608;7.216;2023-03-01T10:19:31;13.65;;;6.25;;
65835;SDS011;52595;51.608;7.216;2023-03-01T10:24:53;11.82;;;6.60;;
65835;SDS011;52595;51.608;7.216;2023-03-01T10:27:21;11.85;;;6.38;;
65835;SDS011;52595;51.608;7.216;2023-03-01T10:32:38;10.85;;;6.20;;
65835;SDS011;52595;51.608;7.216;2023-03-01T10:35:22;10.85;;;6.07;;
65835;SDS011;52595;51.608;7.216;2023-03-01T10:37:56;10.45;;;5.85;;
65835;SDS011;52595;51.608;7.216;2023-03-01T10:40:28;11.73;;;5.78;;
65835;SDS011;52595;51.608;7.216;2023-03-01T10:42:53;9.85;;;5.68;;
65835;SDS011;52595;51.608;7.216;2023-03-01T10:50:39;9.73;;;5.88;;
65835;SDS011;52595;51.608;7.216;2023-03-01T10:53:42;10.20;;;5.72;;
65835;SDS011;52595;51.608;7.216;2023-03-01T10:56:07;12.27;;;6.00;;
65835;SDS011;52595;51.608;7.216;2023-03-01T10:58:39;11.52;;;6.40;;
65835;SDS011;52595;51.608;7.216;2023-03-01T11:03:41;10.30;;;5.70;;
65835;SDS011;52595;51.608;7.216;2023-03-01T11:08:42;11.52;;;6.03;;
65835;SDS011;52595;51.608;7.216;2023-03-01T11:11:13;10.93;;;5.85;;
65835;SDS011;52595;51.608;7.216;2023-03-01T11:16:27;10.15;;;6.15;;
65835;SDS011;52595;51.608;7.216;2023-03-01T11:19:18;9.45;;;5.38;;
65835;SDS011;52595;51.608;7.216;2023-03-01T11:24:24;10.20;;;5.32;;
65835;SDS011;52595;51.608;7.216;2023-03-01T11:26:55;10.25;;;5.68;;
65835;SDS011;52595;51.608;7.216;2023-03-01T11:29:26;9.45;;;5.60;;
65835;SDS011;52595;51.608;7.216;2023-03-01T11:31:57;10.40;;;5.97;;
65835;SDS011;52595;51.608;7.216;2023-03-01T11:34:36;10.10;;;6.17;;
65835;SDS011;52595;51.608;7.216;2023-03-01T11:37:28;9.60;;;5.80;;
65835;SDS011;52595;51.608;7.216;2023-03-01T11:43:03;8.88;;;5.43;;
65835;SDS011;52595;51.608;7.216;2023-03-01T11:45:43;9.50;;;5.32;;
65835;SDS011;52595;51.608;7.216;2023-03-01T11:51:05;10.20;;;5.78;;
65835;SDS011;52595;51.608;7.216;2023-03-01T11:53:47;10.40;;;5.57;;
65835;SDS011;52595;51.608;7.216;2023-03-01T12:02:12;8.88;;;5.40;;
65835;SDS011;52595;51.608;7.216;2023-03-01T12:07:55;13.43;;;5.63;;
65835;SDS011;52595;51.608;7.216;2023-03-01T12:10:52;11.32;;;5.70;;
65835;SDS011;52595;51.608;7.216;2023-03-01T12:17:04;9.27;;;5.72;;
65835;SDS011;52595;51.608;7.216;2023-03-01T12:42:18;10.23;;;6.30;;
65835;SDS011;52595;51.608;7.216;2023-03-01T12:50:38;10.85;;;6.45;;
65835;SDS011;52595;51.608;7.216;2023-03-01T12:53:13;11.38;;;6.30;;
65835;SDS011;52595;51.608;7.216;2023-03-01T12:55:48;11.15;;;6.32;;
65835;SDS011;52595;51.608;7.216;2023-03-01T12:58:32;9.95;;;6.68;;
65835;SDS011;52595;51.608;7.216;2023-03-01T13:06:59;11.35;;;6.57;;
65835;SDS011;52595;51.608;7.216;2023-03-01T13:09:32;10.35;;;6.38;;
65835;SDS011;52595;51.608;7.216;2023-03-01T13:12:04;10.38;;;6.65;;
65835;SDS011;52595;51.608;7.216;2023-03-01T13:15:27;9.98;;;6.43;;
65835;SDS011;52595;51.608;7.216;2023-03-01T13:18:01;9.98;;;6.60;;
65835;SDS011;52595;51.608;7.216;2023-03-01T13:20:30;10.60;;;6.55;;
65835;SDS011;52595;51.608;7.216;2023-03-01T13:28:45;10.18;;;6.80;;
65835;SDS011;52595;51.608;7.216;2023-03-01T13:36:09;12.05;;;7.22;;
65835;SDS011;52595;51.608;7.216;2023-03-01T13:44:46;13.30;;;7.25;;
65835;SDS011;52595;51.608;7.216;2023-03-01T13:46:59;11.25;;;7.55;;
65835;SDS011;52595;51.608;7.216;2023-03-01T13:52:36;11.43;;;7.68;;
65835;SDS011;52595;51.608;7.216;2023-03-01T13:57:45;12.68;;;7.57;;
65835;SDS011;52595;51.608;7.216;2023-03-01T14:02:59;11.27;;;7.50;;
65835;SDS011;52595;51.608;7.216;2023-03-01T14:05:37;12.70;;;7.50;;
65835;SDS011;52595;51.608;7.216;2023-03-01T14:08:04;13.07;;;7.60;;
65835;SDS011;52595;51.608;7.216;2023-03-01T14:10:44;13.20;;;7.45;;
65835;SDS011;52595;51.608;7.216;2023-03-01T14:16:05;10.43;;;6.90;;
65835;SDS011;52595;51.608;7.216;2023-03-01T14:18:47;9.98;;;6.72;;
65835;SDS011;52595;51.608;7.216;2023-03-01T14:21:24;9.32;;;6.28;;
65835;SDS011;52595;51.608;7.216;2023-03-01T14:23:51;11.02;;;6.88;;
65835;SDS011;52595;51.608;7.216;2023-03-01T14:26:21;12.00;;;6.65;;
65835;SDS011;52595;51.608;7.216;2023-03-01T14:28:47;11.40;;;6.70;;
65835;SDS011;52595;51.608;7.216;2023-03-01T14:34:04;11.32;;;6.68;;
65835;SDS011;52595;51.608;7.216;2023-03-01T14:36:31;10.27;;;6.68;;
65835;SDS011;52595;51.608;7.216;2023-03-01T14:38:58;9.57;;;6.20;;
65835;SDS011;52595;51.608;7.216;2023-03-01T14:41:30;10.90;;;6.28;;
65835;SDS011;52595;51.608;7.216;2023-03-01T14:43:59;10.75;;;6.40;;
65835;SDS011;52595;51.608;7.216;2023-03-01T14:46:41;9.45;;;6.38;;
65835;SDS011;52595;51.608;7.216;2023-03-01T14:49:12;9.65;;;6.85;;
65835;SDS011;52595;51.608;7.216;2023-03-01T14:51:41;11.80;;;6.88;;
65835;SDS011;52595;51.608;7.216;2023-03-01T14:54:37;10.30;;;6.70;;
65835;SDS011;52595;51.608;7.216;2023-03-01T14:57:05;10.27;;;6.70;;
65835;SDS011;52595;51.608;7.216;2023-03-01T14:59:32;10.63;;;6.50;;
65835;SDS011;52595;51.608;7.216;2023-03-01T15:01:59;10.15;;;6.50;;
65835;SDS011;52595;51.608;7.216;2023-03-01T15:04:26;10.60;;;6.63;;
65835;SDS011;52595;51.608;7.216;2023-03-01T15:06:53;10.30;;;6.85;;
65835;SDS011;52595;51.608;7.216;2023-03-01T15:09:20;10.32;;;7.07;;
65835;SDS011;52595;51.608;7.216;2023-03-01T15:11:47;11.82;;;7.10;;
65835;SDS011;52595;51.608;7.216;2023-03-01T15:14:25;11.85;;;6.80;;
65835;SDS011;52595;51.608;7.216;2023-03-01T15:17:14;10.25;;;6.45;;
65835;SDS011;52595;51.608;7.216;2023-03-01T15:19:56;10.57;;;6.63;;
65835;SDS011;52595;51.608;7.216;2023-03-01T15:22:22;12.50;;;6.90;;
65835;SDS011;52595;51.608;7.216;2023-03-01T15:24:49;11.05;;;7.13;;
65835;SDS011;52595;51.608;7.216;2023-03-01T15:27:16;10.50;;;6.45;;
65835;SDS011;52595;51.608;7.216;2023-03-01T15:29:54;9.95;;;6.70;;
65835;SDS011;52595;51.608;7.216;2023-03-01T15:32:30;11.35;;;6.22;;
65835;SDS011;52595;51.608;7.216;2023-03-01T15:34:59;11.45;;;6.80;;
65835;SDS011;52595;51.608;7.216;2023-03-01T15:37:46;10.30;;;6.43;;
65835;SDS011;52595;51.608;7.216;2023-03-01T15:40:20;16.20;;;6.55;;
65835;SDS011;52595;51.608;7.216;2023-03-01T15:42:56;11.23;;;6.47;;
65835;SDS011;52595;51.608;7.216;2023-03-01T15:45:24;10.43;;;6.55;;
65835;SDS011;52595;51.608;7.216;2023-03-01T15:47:53;10.32;;;6.38;;
65835;SDS011;52595;51.608;7.216;2023-03-01T15:50:56;12.70;;;6.30;;
65835;SDS011;52595;51.608;7.216;2023-03-01T15:53:19;10.15;;;6.72;;
65835;SDS011;52595;51.608;7.216;2023-03-01T15:55:45;11.15;;;6.50;;
65835;SDS011;52595;51.608;7.216;2023-03-01T15:58:15;10.82;;;5.85;;
65835;SDS011;52595;51.608;7.216;2023-03-01T16:00:43;9.52;;;5.78;;
65835;SDS011;52595;51.608;7.216;2023-03-01T16:03:12;14.18;;;6.00;;
65835;SDS011;52595;51.608;7.216;2023-03-01T16:05:38;9.15;;;5.72;;
65835;SDS011;52595;51.608;7.216;2023-03-01T16:08:04;10.95;;;5.55;;
65835;SDS011;52595;51.608;7.216;2023-03-01T16:10:31;11.63;;;5.70;;
65835;SDS011;52595;51.608;7.216;2023-03-01T16:12:57;10.38;;;5.70;;
65835;SDS011;52595;51.608;7.216;2023-03-01T16:15:27;11.98;;;5.65;;
65835;SDS011;52595;51.608;7.216;2023-03-01T16:17:57;9.80;;;5.82;;
65835;SDS011;52595;51.608;7.216;2023-03-01T16:20:23;9.32;;;5.50;;
65835;SDS011;52595;51.608;7.216;2023-03-01T16:22:49;11.02;;;5.35;;
65835;SDS011;52595;51.608;7.216;2023-03-01T16:25:16;8.98;;;5.00;;
65835;SDS011;52595;51.608;7.216;2023-03-01T16:27:46;10.55;;;5.80;;
65835;SDS011;52595;51.608;7.216;2023-03-01T16:30:14;8.68;;;5.38;;
65835;SDS011;52595;51.608;7.216;2023-03-01T16:32:41;9.98;;;5.70;;
65835;SDS011;52595;51.608;7.216;2023-03-01T16:35:08;9.55;;;5.53;;
65835;SDS011;52595;51.608;7.216;2023-03-01T16:37:35;13.63;;;5.60;;
65835;SDS011;52595;51.608;7.216;2023-03-01T16:40:01;9.90;;;5.50;;
65835;SDS011;52595;51.608;7.216;2023-03-01T16:42:32;10.40;;;5.50;;
65835;SDS011;52595;51.608;7.216;2023-03-01T16:44:59;9.30;;;5.38;;
65835;SDS011;52595;51.608;7.216;2023-03-01T16:47:25;11.73;;;5.95;;
65835;SDS011;52595;51.608;7.216;2023-03-01T16:49:54;12.40;;;6.30;;
65835;SDS011;52595;51.608;7.216;2023-03-01T16:52:20;12.20;;;6.00;;
65835;SDS011;52595;51.608;7.216;2023-03-01T16:54:46;10.90;;;5.57;;